createdAt,value
2019-02-02T00:00:56.318Z,2.1
2019-02-02T00:01:57.403Z,1.97
2019-02-02T00:02:57.832Z,1.97
2019-02-02T00:03:58.073Z,2.04
2019-02-02T00:04:58.771Z,2.16
2019-02-02T00:05:59.178Z,2.05
2019-02-02T00:06:59.315Z,2.12
2019-02-02T00:08:00.453Z,2.08
2019-02-02T00:09:01.271Z,2.08
2019-02-02T00:10:02.124Z,2.14
2019-02-02T00:11:02.250Z,2.12
2019-02-02T00:12:03.504Z,2.1
2019-02-02T00:13:03.761Z,2.05
2019-02-02T00:14:04.280Z,2
2019-02-02T00:15:05.691Z,1.98
2019-02-02T00:16:06.662Z,1.93
2019-02-02T00:17:07.182Z,1.97
2019-02-02T00:18:07.746Z,2
2019-02-02T00:19:07.572Z,1.98
2019-02-02T00:20:08.259Z,1.98
2019-02-02T00:21:08.973Z,1.84
2019-02-02T00:22:09.662Z,1.93
2019-02-02T00:23:10.072Z,2.01
2019-02-02T00:24:11.480Z,2.05
2019-02-02T00:25:12.891Z,2.03
2019-02-02T00:26:13.576Z,2.14
2019-02-02T00:27:13.994Z,2.14
2019-02-02T00:28:14.678Z,2.18
2019-02-02T00:29:15.782Z,2.21
2019-02-02T00:30:15.469Z,2.26
2019-02-02T00:31:15.873Z,2.19
2019-02-02T00:32:17.283Z,2.3
2019-02-02T00:33:17.418Z,2.32
2019-02-02T00:34:17.964Z,2.25
2019-02-02T00:35:18.929Z,2.23
2019-02-02T00:36:19.460Z,2.33
2019-02-02T00:37:19.441Z,2.23
2019-02-02T00:38:20.639Z,2.26
2019-02-02T00:39:22.018Z,2.25
2019-02-02T00:40:22.543Z,2.22
2019-02-02T00:41:23.532Z,2.25
2019-02-02T00:42:23.671Z,2.36
2019-02-02T00:43:24.557Z,2.4
2019-02-02T00:44:24.966Z,2.33
2019-02-02T00:45:26.213Z,2.46
2019-02-02T00:46:26.623Z,2.5
2019-02-02T00:47:27.311Z,2.46
2019-02-02T00:48:28.289Z,2.5
2019-02-02T00:49:28.425Z,2.52
2019-02-02T00:50:28.831Z,2.57
2019-02-02T00:51:29.249Z,2.54
2019-02-02T00:52:30.214Z,2.54
2019-02-02T00:53:30.692Z,2.58
2019-02-02T00:54:31.763Z,2.61
2019-02-02T00:55:32.747Z,2.58
2019-02-02T00:56:32.881Z,2.54
2019-02-02T00:57:33.572Z,2.58
2019-02-02T00:58:34.643Z,2.65
2019-02-02T00:59:35.326Z,2.61
2019-02-02T01:00:35.744Z,2.68
2019-02-02T01:01:36.845Z,2.7
2019-02-02T01:02:37.091Z,2.65
2019-02-02T01:03:37.522Z,2.72
2019-02-02T01:04:38.211Z,2.65
2019-02-02T01:05:39.182Z,2.7
2019-02-02T01:06:39.323Z,2.68
2019-02-02T01:07:41.023Z,2.58
2019-02-02T01:08:42.005Z,2.61
2019-02-02T01:09:42.852Z,2.58
2019-02-02T01:10:43.986Z,2.65
2019-02-02T01:11:56.979Z,2.76
2019-02-02T01:12:57.085Z,2.72
2019-02-02T01:13:58.326Z,2.75
2019-02-02T01:14:59.290Z,2.75
2019-02-02T01:15:58.811Z,2.76
2019-02-02T01:16:59.777Z,2.8
2019-02-02T01:18:00.541Z,2.83
2019-02-02T01:19:01.228Z,2.79
2019-02-02T01:20:01.915Z,2.75
2019-02-02T01:21:02.598Z,2.79
2019-02-02T01:22:03.725Z,2.73
2019-02-02T01:23:04.815Z,2.76
2019-02-02T01:24:05.288Z,2.76
2019-02-02T01:25:06.254Z,2.83
2019-02-02T01:26:06.661Z,2.85
2019-02-02T01:27:07.166Z,2.9
2019-02-02T01:28:07.970Z,2.9
2019-02-02T01:29:08.377Z,2.94
2019-02-02T01:30:09.413Z,3.05
2019-02-02T01:31:10.101Z,3.12
2019-02-02T01:32:14.430Z,3.08
2019-02-02T01:33:11.695Z,3.06
2019-02-02T01:34:12.109Z,3.16
2019-02-02T01:35:13.346Z,3.27
2019-02-02T01:36:14.034Z,3.22
2019-02-02T01:37:14.485Z,3.24
2019-02-02T01:38:15.729Z,3.22
2019-02-02T01:39:15.971Z,3.18
2019-02-02T01:40:17.227Z,3.19
2019-02-02T01:41:18.328Z,3.27
2019-02-02T01:42:19.339Z,3.26
2019-02-02T01:43:19.901Z,3.18
2019-02-02T01:44:20.873Z,3.31
2019-02-02T01:45:21.943Z,3.22
2019-02-02T01:46:22.362Z,3.24
2019-02-02T01:47:22.878Z,3.34
2019-02-02T01:48:23.012Z,3.27
2019-02-02T01:49:23.977Z,3.3
2019-02-02T01:50:24.520Z,3.31
2019-02-02T01:51:24.804Z,3.3
2019-02-02T01:52:25.495Z,3.24
2019-02-02T01:53:26.477Z,3.27
2019-02-02T01:54:26.885Z,3.26
2019-02-02T01:55:28.018Z,3.22
2019-02-02T01:56:28.986Z,3.15
2019-02-02T01:57:29.948Z,3.19
2019-02-02T01:58:30.628Z,3.21
2019-02-02T01:59:32.310Z,3.18
2019-02-02T02:00:33.282Z,3.13
2019-02-02T02:01:33.962Z,3.16
2019-02-02T02:02:34.505Z,3.15
2019-02-02T02:03:35.628Z,3.12
2019-02-02T02:04:36.313Z,3.11
2019-02-02T02:05:37.721Z,3.11
2019-02-02T02:06:38.473Z,3.08
2019-02-02T02:07:38.601Z,3.05
2019-02-02T02:08:39.037Z,3.21
2019-02-02T02:09:40.476Z,3.06
2019-02-02T02:10:40.886Z,3.12
2019-02-02T02:11:41.567Z,3.19
2019-02-02T02:12:42.641Z,3.18
2019-02-02T02:13:43.616Z,3.16
2019-02-02T02:14:44.857Z,3.22
2019-02-02T02:15:45.543Z,3.27
2019-02-02T02:16:45.953Z,3.29
2019-02-02T02:17:47.080Z,3.33
2019-02-02T02:18:48.042Z,3.4
2019-02-02T02:19:49.010Z,3.31
2019-02-02T02:20:49.698Z,3.33
2019-02-02T02:21:50.386Z,3.29
2019-02-02T02:22:50.792Z,3.31
2019-02-02T02:23:51.066Z,3.3
2019-02-02T02:24:52.592Z,3.24
2019-02-02T02:25:53.274Z,3.31
2019-02-02T02:26:53.961Z,3.33
2019-02-02T02:27:54.924Z,3.29
2019-02-02T02:28:55.334Z,3.26
2019-02-02T02:29:56.291Z,3.41
2019-02-02T02:30:56.521Z,3.21
2019-02-02T02:31:57.962Z,3.4
2019-02-02T02:32:58.819Z,3.27
2019-02-02T02:33:58.524Z,3.37
2019-02-02T02:34:58.929Z,3.26
2019-02-02T02:35:59.705Z,3.53
2019-02-02T02:37:00.787Z,3.55
2019-02-02T02:38:01.195Z,3.4
2019-02-02T02:39:02.160Z,3.4
2019-02-02T02:40:03.445Z,3.43
2019-02-02T02:41:03.699Z,3.45
2019-02-02T02:42:04.220Z,3.46
2019-02-02T02:43:05.668Z,3.34
2019-02-02T02:44:06.785Z,3.49
2019-02-02T02:45:07.658Z,3.58
2019-02-02T02:46:09.467Z,3.61
2019-02-02T02:47:09.429Z,3.49
2019-02-02T02:48:10.507Z,3.63
2019-02-02T02:49:11.617Z,3.59
2019-02-02T02:50:11.756Z,3.56
2019-02-02T02:51:13.311Z,3.56
2019-02-02T02:52:13.299Z,3.55
2019-02-02T02:53:14.264Z,3.55
2019-02-02T02:54:15.028Z,3.61
2019-02-02T02:55:16.451Z,3.58
2019-02-02T02:56:16.692Z,3.67
2019-02-02T02:57:17.168Z,3.67
2019-02-02T02:58:17.693Z,3.7
2019-02-02T02:59:18.653Z,3.76
2019-02-02T03:00:19.799Z,3.73
2019-02-02T03:01:20.894Z,3.71
2019-02-02T03:02:21.421Z,3.78
2019-02-02T03:03:21.715Z,3.71
2019-02-02T03:04:22.426Z,3.74
2019-02-02T03:05:23.676Z,3.85
2019-02-02T03:06:24.094Z,3.74
2019-02-02T03:07:25.072Z,3.78
2019-02-02T03:08:26.607Z,3.78
2019-02-02T03:09:26.860Z,3.71
2019-02-02T03:10:28.099Z,3.84
2019-02-02T03:11:29.384Z,3.82
2019-02-02T03:12:29.345Z,3.88
2019-02-02T03:13:29.791Z,3.85
2019-02-02T03:14:30.841Z,3.76
2019-02-02T03:15:32.357Z,3.81
2019-02-02T03:16:32.494Z,3.85
2019-02-02T03:17:33.565Z,3.86
2019-02-02T03:18:33.536Z,3.77
2019-02-02T03:19:34.328Z,3.71
2019-02-02T03:20:35.289Z,3.77
2019-02-02T03:21:36.536Z,3.63
2019-02-02T03:22:37.216Z,3.74
2019-02-02T03:23:38.538Z,3.61
2019-02-02T03:24:38.507Z,3.67
2019-02-02T03:25:39.217Z,3.61
2019-02-02T03:26:39.415Z,3.66
2019-02-02T03:27:39.851Z,3.63
2019-02-02T03:28:54.657Z,3.59
2019-02-02T03:29:53.023Z,3.56
2019-02-02T03:30:54.409Z,3.63
2019-02-02T03:31:55.227Z,3.68
2019-02-02T03:32:56.068Z,3.73
2019-02-02T03:33:57.190Z,3.73
2019-02-02T03:34:58.157Z,3.63
2019-02-02T03:35:59.120Z,3.68
2019-02-02T03:37:00.083Z,3.61
2019-02-02T03:38:00.966Z,3.63
2019-02-02T03:39:01.249Z,3.63
2019-02-02T03:40:02.502Z,3.59
2019-02-02T03:41:03.758Z,3.58
2019-02-02T03:42:04.066Z,3.5
2019-02-02T03:43:05.661Z,3.43
2019-02-02T03:44:06.376Z,3.36
2019-02-02T03:45:07.575Z,3.37
2019-02-02T03:46:07.568Z,3.4
2019-02-02T03:47:08.821Z,3.29
2019-02-02T03:48:09.505Z,3.34
2019-02-02T03:49:09.933Z,3.33
2019-02-02T03:50:11.473Z,3.31
2019-02-02T03:51:12.464Z,3.49
2019-02-02T03:52:12.897Z,3.41
2019-02-02T03:53:13.306Z,3.55
2019-02-02T03:54:13.996Z,3.49
2019-02-02T03:55:15.252Z,3.4
2019-02-02T03:56:15.946Z,3.5
2019-02-02T03:57:16.358Z,3.46
2019-02-02T03:58:17.720Z,3.53
2019-02-02T03:59:18.136Z,3.5
2019-02-02T04:00:19.795Z,3.59
2019-02-02T04:01:19.487Z,3.58
2019-02-02T04:02:20.297Z,3.64
2019-02-02T04:03:20.706Z,3.61
2019-02-02T04:04:21.128Z,3.61
2019-02-02T04:05:22.094Z,3.61
2019-02-02T04:06:22.054Z,3.52
2019-02-02T04:07:23.072Z,3.61
2019-02-02T04:08:23.762Z,3.49
2019-02-02T04:09:24.447Z,3.46
2019-02-02T04:10:25.283Z,3.52
2019-02-02T04:11:25.720Z,3.52
2019-02-02T04:12:27.100Z,3.46
2019-02-02T04:13:28.093Z,3.34
2019-02-02T04:14:28.824Z,3.45
2019-02-02T04:15:29.802Z,3.34
2019-02-02T04:16:30.488Z,3.43
2019-02-02T04:17:30.896Z,3.31
2019-02-02T04:18:32.581Z,3.34
2019-02-02T04:19:32.272Z,3.29
2019-02-02T04:20:32.823Z,3.3
2019-02-02T04:21:33.045Z,3.29
2019-02-02T04:22:37.028Z,3.36
2019-02-02T04:23:37.992Z,3.43
2019-02-02T04:24:38.677Z,3.36
2019-02-02T04:25:39.188Z,3.34
2019-02-02T04:26:39.616Z,3.24
2019-02-02T04:27:40.744Z,3.4
2019-02-02T04:28:41.788Z,3.46
2019-02-02T04:29:42.027Z,3.36
2019-02-02T04:30:42.572Z,3.46
2019-02-02T04:31:43.267Z,3.43
2019-02-02T04:32:43.676Z,3.5
2019-02-02T04:33:45.343Z,3.41
2019-02-02T04:34:45.583Z,3.48
2019-02-02T04:35:45.712Z,3.55
2019-02-02T04:36:46.955Z,3.5
2019-02-02T04:37:47.368Z,3.58
2019-02-02T04:38:48.608Z,3.58
2019-02-02T04:39:49.575Z,3.63
2019-02-02T04:40:50.700Z,3.59
2019-02-02T04:41:51.383Z,3.66
2019-02-02T04:42:52.383Z,3.68
2019-02-02T04:43:53.082Z,3.81
2019-02-02T04:44:53.763Z,3.92
2019-02-02T04:45:54.456Z,3.84
2019-02-02T04:46:55.582Z,3.94
2019-02-02T04:47:56.990Z,3.91
2019-02-02T04:48:57.770Z,3.91
2019-02-02T04:49:58.729Z,3.92
2019-02-02T04:50:59.185Z,3.84
2019-02-02T04:51:59.870Z,3.95
2019-02-02T04:53:00.852Z,3.88
2019-02-02T04:54:01.399Z,3.88
2019-02-02T04:55:01.821Z,3.95
2019-02-02T04:56:02.809Z,3.94
2019-02-02T04:57:03.774Z,3.92
2019-02-02T04:58:04.531Z,3.92
2019-02-02T04:59:05.607Z,3.94
2019-02-02T05:00:05.624Z,3.89
2019-02-02T05:01:06.874Z,3.92
2019-02-02T05:02:07.284Z,3.94
2019-02-02T05:03:07.491Z,3.92
2019-02-02T05:04:08.449Z,3.89
2019-02-02T05:05:09.140Z,3.91
2019-02-02T05:06:10.273Z,3.91
2019-02-02T05:07:10.961Z,3.86
2019-02-02T05:08:11.761Z,3.91
2019-02-02T05:09:12.169Z,3.73
2019-02-02T05:10:12.854Z,3.86
2019-02-02T05:11:13.308Z,3.88
2019-02-02T05:12:13.721Z,3.84
2019-02-02T05:13:14.128Z,3.92
2019-02-02T05:14:14.535Z,3.96
2019-02-02T05:15:14.996Z,3.92
2019-02-02T05:16:15.683Z,3.92
2019-02-02T05:17:16.922Z,3.94
2019-02-02T05:18:17.332Z,3.86
2019-02-02T05:19:18.015Z,3.91
2019-02-02T05:20:18.821Z,3.84
2019-02-02T05:21:19.654Z,3.92
2019-02-02T05:22:20.617Z,3.92
2019-02-02T05:23:20.746Z,3.89
2019-02-02T05:24:22.152Z,3.99
2019-02-02T05:25:22.644Z,3.78
2019-02-02T05:26:23.067Z,3.95
2019-02-02T05:27:24.309Z,3.85
2019-02-02T05:28:25.003Z,3.86
2019-02-02T05:29:25.971Z,3.74
2019-02-02T05:30:27.226Z,3.73
2019-02-02T05:31:27.485Z,3.88
2019-02-02T05:32:28.002Z,3.91
2019-02-02T05:33:28.415Z,3.85
2019-02-02T05:34:30.100Z,3.92
2019-02-02T05:35:29.784Z,3.89
2019-02-02T05:36:30.291Z,3.92
2019-02-02T05:37:30.419Z,3.92
2019-02-02T05:38:31.828Z,3.91
2019-02-02T05:39:32.233Z,3.99
2019-02-02T05:40:32.494Z,4
2019-02-02T05:41:32.873Z,4.02
2019-02-02T05:42:33.328Z,3.95
2019-02-02T05:43:34.024Z,3.99
2019-02-02T05:44:34.707Z,3.96
2019-02-02T05:45:35.668Z,3.95
2019-02-02T05:46:36.356Z,4
2019-02-02T05:47:37.604Z,3.99
2019-02-02T05:48:37.896Z,3.96
2019-02-02T05:49:38.308Z,4
2019-02-02T05:50:39.716Z,3.99
2019-02-02T05:51:40.129Z,4
2019-02-02T05:52:40.814Z,4.06
2019-02-02T05:53:41.499Z,4.04
2019-02-02T05:54:42.907Z,4.06
2019-02-02T05:55:42.879Z,3.96
2019-02-02T05:56:43.626Z,4.04
2019-02-02T05:57:44.322Z,3.95
2019-02-02T05:58:45.091Z,4
2019-02-02T05:59:58.537Z,4.02
2019-02-02T06:00:59.381Z,3.96
2019-02-02T06:02:00.518Z,3.96
2019-02-02T06:03:02.481Z,4.03
2019-02-02T06:04:02.446Z,4.06
2019-02-02T06:05:03.854Z,4.07
2019-02-02T06:06:04.830Z,4.09
2019-02-02T06:07:05.515Z,4
2019-02-02T06:08:05.921Z,3.95
2019-02-02T06:09:06.719Z,3.88
2019-02-02T06:10:07.129Z,3.94
2019-02-02T06:11:08.557Z,3.78
2019-02-02T06:12:09.796Z,3.92
2019-02-02T06:13:09.587Z,3.84
2019-02-02T06:14:10.783Z,3.91
2019-02-02T06:15:10.916Z,3.94
2019-02-02T06:16:11.353Z,3.94
2019-02-02T06:17:12.482Z,3.94
2019-02-02T06:18:13.608Z,3.88
2019-02-02T06:19:14.022Z,3.92
2019-02-02T06:20:14.996Z,3.95
2019-02-02T06:21:15.717Z,3.95
2019-02-02T06:22:16.408Z,3.92
2019-02-02T06:23:17.372Z,3.92
2019-02-02T06:24:17.781Z,3.92
2019-02-02T06:25:19.685Z,3.96
2019-02-02T06:26:19.688Z,3.96
2019-02-02T06:27:20.373Z,4
2019-02-02T06:28:20.503Z,4.03
2019-02-02T06:29:20.918Z,4.02
2019-02-02T06:30:21.598Z,4
2019-02-02T06:31:22.446Z,4.03
2019-02-02T06:32:23.139Z,4.02
2019-02-02T06:33:24.267Z,3.99
2019-02-02T06:34:25.678Z,4.02
2019-02-02T06:35:25.931Z,3.99
2019-02-02T06:36:26.618Z,4.03
2019-02-02T06:37:26.746Z,3.96
2019-02-02T06:38:28.198Z,3.99
2019-02-02T06:39:28.883Z,4
2019-02-02T06:40:30.062Z,3.94
2019-02-02T06:41:30.168Z,3.96
2019-02-02T06:42:30.857Z,3.91
2019-02-02T06:43:31.688Z,3.96
2019-02-02T06:44:32.652Z,3.91
2019-02-02T06:45:33.342Z,3.99
2019-02-02T06:46:45.920Z,3.95
2019-02-02T06:47:46.310Z,3.95
2019-02-02T06:48:47.272Z,3.91
2019-02-02T06:49:47.970Z,3.94
2019-02-02T06:50:48.225Z,3.91
2019-02-02T06:51:48.634Z,3.77
2019-02-02T06:52:49.320Z,3.82
2019-02-02T06:53:49.845Z,3.82
2019-02-02T06:54:50.533Z,3.88
2019-02-02T06:55:50.670Z,3.84
2019-02-02T06:56:51.080Z,3.85
2019-02-02T06:57:52.178Z,3.77
2019-02-02T06:58:52.694Z,3.84
2019-02-02T06:59:53.111Z,3.74
2019-02-02T07:00:53.802Z,3.74
2019-02-02T07:01:54.212Z,3.81
2019-02-02T07:02:55.632Z,3.73
2019-02-02T07:03:56.046Z,3.7
2019-02-02T07:04:56.447Z,3.68
2019-02-02T07:05:57.429Z,3.76
2019-02-02T07:06:57.836Z,3.7
2019-02-02T07:07:58.104Z,3.74
2019-02-02T07:08:58.539Z,3.84
2019-02-02T07:09:58.948Z,3.82
2019-02-02T07:11:00.078Z,3.91
2019-02-02T07:12:00.763Z,3.95
2019-02-02T07:13:02.115Z,3.88
2019-02-02T07:14:02.081Z,3.92
2019-02-02T07:15:02.873Z,3.95
2019-02-02T07:16:03.567Z,4.02
2019-02-02T07:17:04.256Z,3.95
2019-02-02T07:18:05.374Z,4.02
2019-02-02T07:19:05.797Z,3.99
2019-02-02T07:20:06.220Z,3.95
2019-02-02T07:21:07.190Z,4.02
2019-02-02T07:22:08.328Z,3.99
2019-02-02T07:23:09.461Z,3.95
2019-02-02T07:24:10.700Z,3.96
2019-02-02T07:25:11.668Z,3.96
2019-02-02T07:26:11.761Z,4.02
2019-02-02T07:27:12.451Z,4.02
2019-02-02T07:28:12.855Z,3.95
2019-02-02T07:29:13.998Z,3.96
2019-02-02T07:30:14.410Z,3.88
2019-02-02T07:30:30.855Z,3.91
2019-02-02T07:31:27.703Z,3.96
2019-02-02T07:32:28.683Z,3.89
2019-02-02T07:33:29.666Z,3.88
2019-02-02T07:34:29.918Z,3.82
2019-02-02T07:35:30.165Z,3.84
2019-02-02T07:36:30.727Z,3.78
2019-02-02T07:37:31.431Z,3.95
2019-02-02T07:38:32.121Z,3.91
2019-02-02T07:39:33.365Z,3.92
2019-02-02T07:40:33.615Z,3.92
2019-02-02T07:41:33.992Z,3.96
2019-02-02T07:42:34.788Z,3.84
2019-02-02T07:43:36.203Z,3.91
2019-02-02T07:44:36.631Z,3.81
2019-02-02T07:45:37.767Z,3.81
2019-02-02T07:46:38.898Z,3.71
2019-02-02T07:47:40.147Z,3.86
2019-02-02T07:48:40.390Z,3.88
2019-02-02T07:49:41.364Z,3.91
2019-02-02T07:50:41.770Z,3.86
2019-02-02T07:51:42.619Z,3.91
2019-02-02T07:52:44.026Z,3.88
2019-02-02T07:53:44.715Z,3.86
2019-02-02T07:54:44.971Z,3.86
2019-02-02T07:55:45.245Z,3.85
2019-02-02T07:56:45.799Z,3.99
2019-02-02T07:57:46.940Z,3.91
2019-02-02T07:58:47.625Z,3.91
2019-02-02T07:59:48.322Z,3.89
2019-02-02T08:00:48.450Z,3.74
2019-02-02T08:01:49.113Z,3.71
2019-02-02T08:02:49.933Z,3.71
2019-02-02T08:03:50.629Z,3.85
2019-02-02T08:04:51.041Z,3.78
2019-02-02T08:05:51.448Z,3.73
2019-02-02T08:06:52.701Z,3.71
2019-02-02T08:07:52.828Z,3.73
2019-02-02T08:08:53.798Z,3.73
2019-02-02T08:09:54.212Z,3.58
2019-02-02T08:10:57.051Z,3.55
2019-02-02T08:11:56.795Z,3.63
2019-02-02T08:12:57.561Z,3.68
2019-02-02T08:13:58.267Z,3.64
2019-02-02T08:14:58.702Z,3.63
2019-02-02T08:15:59.112Z,3.63
2019-02-02T08:16:59.519Z,3.61
2019-02-02T08:18:00.248Z,3.7
2019-02-02T08:19:01.491Z,3.71
2019-02-02T08:20:02.217Z,3.7
2019-02-02T08:21:01.923Z,3.76
2019-02-02T08:22:03.080Z,3.85
2019-02-02T08:23:03.769Z,3.88
2019-02-02T08:24:04.185Z,3.82
2019-02-02T08:25:05.152Z,3.81
2019-02-02T08:26:05.407Z,3.85
2019-02-02T08:27:06.155Z,3.73
2019-02-02T08:28:06.572Z,3.68
2019-02-02T08:29:07.279Z,3.66
2019-02-02T08:30:07.791Z,3.7
2019-02-02T08:31:08.480Z,3.78
2019-02-02T08:32:08.740Z,3.71
2019-02-02T08:33:09.467Z,3.73
2019-02-02T08:34:09.878Z,3.67
2019-02-02T08:35:11.301Z,3.76
2019-02-02T08:36:11.986Z,3.77
2019-02-02T08:37:12.676Z,3.66
2019-02-02T08:38:13.645Z,3.71
2019-02-02T08:39:14.411Z,3.78
2019-02-02T08:40:14.440Z,3.82
2019-02-02T08:41:15.406Z,3.85
2019-02-02T08:42:15.806Z,3.94
2019-02-02T08:43:16.219Z,3.92
2019-02-02T08:44:17.199Z,3.94
2019-02-02T08:45:18.527Z,3.94
2019-02-02T08:46:18.218Z,4.04
2019-02-02T08:47:19.632Z,4.1
2019-02-02T08:48:21.047Z,4.07
2019-02-02T08:49:21.474Z,4.14
2019-02-02T08:50:22.445Z,4.16
2019-02-02T08:51:23.433Z,4.21
2019-02-02T08:52:23.691Z,4.2
2019-02-02T08:53:24.551Z,4.16
2019-02-02T08:54:25.063Z,4.24
2019-02-02T08:55:25.376Z,4.2
2019-02-02T08:56:26.006Z,4.14
2019-02-02T08:57:26.393Z,4.16
2019-02-02T08:58:27.463Z,4.22
2019-02-02T08:59:28.427Z,4.21
2019-02-02T09:00:28.483Z,4.21
2019-02-02T09:01:28.899Z,4.22
2019-02-02T09:02:30.294Z,4.32
2019-02-02T09:03:30.427Z,4.25
2019-02-02T09:04:31.555Z,4.24
2019-02-02T09:05:32.715Z,4.32
2019-02-02T09:06:46.935Z,4.25
2019-02-02T09:07:48.050Z,4.38
2019-02-02T09:08:48.743Z,4.46
2019-02-02T09:09:49.713Z,4.52
2019-02-02T09:10:50.131Z,4.43
2019-02-02T09:11:50.827Z,4.53
2019-02-02T09:12:51.815Z,4.48
2019-02-02T09:13:52.342Z,4.6
2019-02-02T09:14:52.869Z,4.61
2019-02-02T09:15:53.565Z,4.61
2019-02-02T09:16:54.558Z,4.6
2019-02-02T09:17:55.654Z,4.61
2019-02-02T09:18:56.342Z,4.61
2019-02-02T09:19:56.479Z,4.56
2019-02-02T09:20:57.172Z,4.53
2019-02-02T09:21:58.203Z,4.57
2019-02-02T09:23:10.937Z,4.6
2019-02-02T09:24:12.051Z,4.5
2019-02-02T09:25:12.736Z,4.58
2019-02-02T09:26:13.334Z,4.66
2019-02-02T09:27:13.212Z,4.66
2019-02-02T09:28:13.920Z,4.78
2019-02-02T09:29:14.611Z,4.83
2019-02-02T09:30:16.406Z,4.78
2019-02-02T09:31:17.934Z,4.76
2019-02-02T09:32:18.358Z,4.84
2019-02-02T09:33:19.789Z,4.86
2019-02-02T09:34:21.094Z,4.76
2019-02-02T09:35:21.787Z,4.67
2019-02-02T09:36:22.039Z,4.64
2019-02-02T09:37:23.205Z,4.61
2019-02-02T09:38:23.918Z,4.68
2019-02-02T09:39:24.628Z,4.7
2019-02-02T09:40:27.258Z,4.7
2019-02-02T09:41:27.392Z,4.64
2019-02-02T09:42:28.917Z,4.63
2019-02-02T09:43:29.483Z,4.64
2019-02-02T09:44:30.893Z,4.68
2019-02-02T09:45:31.583Z,4.74
2019-02-02T09:46:32.404Z,4.82
2019-02-02T09:47:32.543Z,4.76
2019-02-02T09:48:33.961Z,4.79
2019-02-02T09:49:33.930Z,4.82
2019-02-02T09:50:35.067Z,4.78
2019-02-02T09:51:35.764Z,4.83
2019-02-02T09:52:36.179Z,4.84
2019-02-02T09:53:36.593Z,4.79
2019-02-02T09:54:37.369Z,4.82
2019-02-02T09:55:38.057Z,4.86
2019-02-02T09:56:40.441Z,4.79
2019-02-02T09:57:40.895Z,4.98
2019-02-02T09:58:41.861Z,5
2019-02-02T09:59:42.833Z,4.92
2019-02-02T10:00:43.798Z,4.92
2019-02-02T10:01:43.935Z,4.95
2019-02-02T10:02:47.300Z,4.84
2019-02-02T10:03:48.596Z,4.89
2019-02-02T10:04:49.150Z,4.83
2019-02-02T10:05:50.199Z,5.07
2019-02-02T10:06:52.482Z,5.02
2019-02-02T10:07:52.456Z,5.05
2019-02-02T10:08:52.873Z,5.04
2019-02-02T10:09:53.837Z,5
2019-02-02T10:10:54.531Z,4.9
2019-02-02T10:11:54.945Z,4.86
2019-02-02T10:12:56.472Z,4.9
2019-02-02T10:13:56.549Z,4.75
2019-02-02T10:14:57.373Z,4.57
2019-02-02T10:15:57.505Z,4.64
2019-02-02T10:16:58.215Z,4.56
2019-02-02T10:18:02.863Z,4.64
2019-02-02T10:19:04.934Z,4.63
2019-02-02T10:19:15.658Z,4.7
2019-02-02T10:20:13.792Z,4.75
2019-02-02T10:21:13.938Z,4.82
2019-02-02T10:22:14.912Z,4.87
2019-02-02T10:23:15.605Z,4.83
2019-02-02T10:24:16.022Z,4.98
2019-02-02T10:25:17.474Z,4.98
2019-02-02T10:26:18.191Z,5.05
2019-02-02T10:27:19.214Z,5.04
2019-02-02T10:28:20.043Z,5.12
2019-02-02T10:29:20.013Z,5.18
2019-02-02T10:30:24.093Z,5.26
2019-02-02T10:31:24.804Z,5.44
2019-02-02T10:32:25.940Z,5.41
2019-02-02T10:33:26.926Z,5.54
2019-02-02T10:34:27.617Z,5.55
2019-02-02T10:35:28.101Z,5.79
2019-02-02T10:36:28.808Z,5.79
2019-02-02T10:37:29.499Z,5.92
2019-02-02T10:38:30.018Z,5.94
2019-02-02T10:39:30.161Z,6.09
2019-02-02T10:40:31.518Z,6.05
2019-02-02T10:41:32.562Z,6.32
2019-02-02T10:42:33.253Z,6.38
2019-02-02T10:43:34.224Z,6.44
2019-02-02T10:44:34.649Z,6.5
2019-02-02T10:45:35.940Z,6.64
2019-02-02T10:46:36.364Z,6.67
2019-02-02T10:47:37.060Z,6.6
2019-02-02T10:48:37.489Z,6.65
2019-02-02T10:49:38.458Z,6.67
2019-02-02T10:50:38.862Z,6.65
2019-02-02T10:51:40.276Z,6.7
2019-02-02T10:52:40.527Z,6.68
2019-02-02T10:53:41.221Z,6.74
2019-02-02T10:54:41.634Z,6.68
2019-02-02T10:55:42.773Z,6.57
2019-02-02T10:56:46.001Z,6.6
2019-02-02T10:57:45.056Z,6.59
2019-02-02T10:58:45.750Z,6.53
2019-02-02T10:59:48.976Z,6.53
2019-02-02T11:00:47.506Z,6.56
2019-02-02T11:01:52.254Z,6.59
2019-02-02T11:02:53.515Z,6.53
2019-02-02T11:03:54.320Z,6.5
2019-02-02T11:04:55.526Z,6.43
2019-02-02T11:05:56.633Z,6.38
2019-02-02T11:06:57.092Z,6.36
2019-02-02T11:07:57.908Z,6.39
2019-02-02T11:08:58.654Z,6.36
2019-02-02T11:09:59.242Z,6.26
2019-02-02T11:11:00.194Z,6.34
2019-02-02T11:12:00.307Z,6.35
2019-02-02T11:13:01.883Z,6.34
2019-02-02T11:14:03.381Z,6.19
2019-02-02T11:15:04.428Z,6.1
2019-02-02T11:16:04.730Z,6.05
2019-02-02T11:17:05.063Z,5.99
2019-02-02T11:18:05.079Z,6.05
2019-02-02T11:19:06.814Z,6.05
2019-02-02T11:20:08.693Z,6.1
2019-02-02T11:21:09.647Z,6.02
2019-02-02T11:22:09.850Z,5.99
2019-02-02T11:23:10.749Z,5.94
2019-02-02T11:24:11.171Z,5.95
2019-02-02T11:25:11.372Z,6.02
2019-02-02T11:26:13.047Z,6.05
2019-02-02T11:27:14.504Z,5.94
2019-02-02T11:28:15.613Z,5.94
2019-02-02T11:29:16.430Z,5.91
2019-02-02T11:30:16.570Z,6.02
2019-02-02T11:31:17.285Z,5.9
2019-02-02T11:32:18.266Z,5.95
2019-02-02T11:33:18.405Z,6.09
2019-02-02T11:34:18.658Z,6.06
2019-02-02T11:35:19.074Z,5.99
2019-02-02T11:36:20.115Z,6.12
2019-02-02T11:37:20.913Z,6.12
2019-02-02T11:38:21.347Z,6.09
2019-02-02T11:39:22.315Z,6.01
2019-02-02T11:40:22.753Z,6.02
2019-02-02T11:41:24.271Z,6.07
2019-02-02T11:42:24.961Z,6.1
2019-02-02T11:43:26.099Z,5.98
2019-02-02T11:44:26.523Z,6.09
2019-02-02T11:45:27.780Z,5.94
2019-02-02T11:46:28.231Z,6.05
2019-02-02T11:47:28.669Z,5.99
2019-02-02T11:48:29.645Z,6.05
2019-02-02T11:49:30.617Z,5.9
2019-02-02T11:50:30.756Z,5.99
2019-02-02T11:51:31.133Z,6.01
2019-02-02T11:52:31.828Z,6.15
2019-02-02T11:53:32.247Z,6.13
2019-02-02T11:54:33.386Z,6.2
2019-02-02T11:55:33.807Z,6.28
2019-02-02T11:56:35.057Z,6.38
2019-02-02T11:57:36.170Z,6.41
2019-02-02T11:58:36.142Z,6.41
2019-02-02T11:59:36.558Z,6.54
2019-02-02T12:00:37.349Z,6.47
2019-02-02T12:01:38.210Z,6.52
2019-02-02T12:02:50.537Z,6.46
2019-02-02T12:03:50.638Z,6.5
2019-02-02T12:04:52.020Z,6.53
2019-02-02T12:05:52.162Z,6.64
2019-02-02T12:06:52.974Z,6.6
2019-02-02T12:07:53.407Z,6.6
2019-02-02T12:08:54.106Z,6.6
2019-02-02T12:09:54.520Z,6.59
2019-02-02T12:10:55.110Z,6.64
2019-02-02T12:11:55.935Z,6.57
2019-02-02T12:12:57.016Z,6.6
2019-02-02T12:13:57.283Z,6.59
2019-02-02T12:14:58.066Z,6.56
2019-02-02T12:15:58.774Z,6.41
2019-02-02T12:16:59.315Z,6.41
2019-02-02T12:17:59.882Z,6.32
2019-02-02T12:19:01.301Z,6.29
2019-02-02T12:20:02.554Z,6.19
2019-02-02T12:21:02.708Z,6.22
2019-02-02T12:22:03.688Z,6.16
2019-02-02T12:23:04.514Z,6.1
2019-02-02T12:24:17.424Z,6.19
2019-02-02T12:25:17.964Z,6.25
2019-02-02T12:26:18.941Z,6.34
2019-02-02T12:27:19.075Z,6.36
2019-02-02T12:28:20.340Z,6.32
2019-02-02T12:29:20.480Z,6.32
2019-02-02T12:30:21.619Z,6.19
2019-02-02T12:31:22.126Z,6.25
2019-02-02T12:32:28.086Z,6.26
2019-02-02T12:32:35.645Z,6.26
2019-02-02T12:33:36.330Z,6.25
2019-02-02T12:34:37.026Z,6.32
2019-02-02T12:35:37.722Z,6.29
2019-02-02T12:36:39.134Z,6.38
2019-02-02T12:37:40.383Z,6.43
2019-02-02T12:38:40.403Z,6.49
2019-02-02T12:39:41.829Z,6.5
2019-02-02T12:40:43.354Z,6.46
2019-02-02T12:41:43.897Z,6.59
2019-02-02T12:42:44.434Z,6.57
2019-02-02T12:43:45.371Z,6.64
2019-02-02T12:44:47.016Z,6.62
2019-02-02T12:45:51.702Z,6.65
2019-02-02T12:46:02.944Z,6.56
2019-02-02T12:46:14.718Z,6.6
2019-02-02T12:47:12.252Z,6.6
2019-02-02T12:48:12.688Z,6.75
2019-02-02T12:49:13.383Z,6.72
2019-02-02T12:50:13.637Z,6.77
2019-02-02T12:51:14.210Z,6.78
2019-02-02T12:52:15.903Z,6.87
2019-02-02T12:53:16.329Z,6.85
2019-02-02T12:54:17.296Z,6.86
2019-02-02T12:55:17.990Z,6.85
2019-02-02T12:56:18.465Z,6.87
2019-02-02T12:57:18.858Z,6.89
2019-02-02T12:58:20.137Z,6.77
2019-02-02T12:59:20.557Z,6.82
2019-02-02T13:00:21.926Z,6.87
2019-02-02T13:01:22.062Z,6.85
2019-02-02T13:02:39.395Z,6.86
2019-02-02T13:03:36.001Z,6.93
2019-02-02T13:04:37.252Z,6.92
2019-02-02T13:05:40.221Z,7
2019-02-02T13:06:40.915Z,6.97
2019-02-02T13:07:42.110Z,6.96
2019-02-02T13:08:42.248Z,7.05
2019-02-02T13:09:43.741Z,7.05
2019-02-02T13:10:44.712Z,7.14
2019-02-02T13:11:45.081Z,7.05
2019-02-02T13:12:45.785Z,7.01
2019-02-02T13:13:47.194Z,6.97
2019-02-02T13:14:47.333Z,7.03
2019-02-02T13:15:48.748Z,7.11
2019-02-02T13:16:51.561Z,7.01
2019-02-02T13:17:52.815Z,7.11
2019-02-02T13:18:53.204Z,7.1
2019-02-02T13:19:53.281Z,7.18
2019-02-02T13:20:53.433Z,7.23
2019-02-02T13:21:54.126Z,7.28
2019-02-02T13:22:54.591Z,7.25
2019-02-02T13:23:55.704Z,7.22
2019-02-02T13:24:56.397Z,7.33
2019-02-02T13:26:10.284Z,7.31
2019-02-02T13:27:10.675Z,7.44
2019-02-02T13:28:11.786Z,7.33
2019-02-02T13:29:11.923Z,7.32
2019-02-02T13:30:12.616Z,7.36
2019-02-02T13:31:13.034Z,7.39